sensor_id;sensor_type;location;lat;lon;timestamp;P1;durP1;ratioP1;P2;durP2;ratioP2
74152;SDS011;62505;46.070;14.492;2024-03-02T00:01:05;8.82;;;6.13;;
74152;SDS011;62505;46.070;14.492;2024-03-02T00:03:33;7.32;;;5.45;;
74152;SDS011;62505;46.070;14.492;2024-03-02T00:06:00;6.95;;;5.60;;
74152;SDS011;62505;46.070;14.492;2024-03-02T00:08:28;12.35;;;5.80;;
74152;SDS011;62505;46.070;14.492;2024-03-02T00:10:57;9.48;;;5.80;;
74152;SDS011;62505;46.070;14.492;2024-03-02T00:13:24;9.50;;;6.30;;
74152;SDS011;62505;46.070;14.492;2024-03-02T00:15:52;10.60;;;5.88;;
74152;SDS011;62505;46.070;14.492;2024-03-02T00:18:20;9.82;;;6.25;;
74152;SDS011;62505;46.070;14.492;2024-03-02T00:20:54;7.50;;;6.20;;
74152;SDS011;62505;46.070;14.492;2024-03-02T00:23:22;8.55;;;5.97;;
74152;SDS011;62505;46.070;14.492;2024-03-02T00:25:51;10.45;;;6.80;;
74152;SDS011;62505;46.070;14.492;2024-03-02T00:28:19;8.13;;;6.43;;
74152;SDS011;62505;46.070;14.492;2024-03-02T00:30:52;9.65;;;6.38;;
74152;SDS011;62505;46.070;14.492;2024-03-02T00:33:22;9.35;;;6.38;;
74152;SDS011;62505;46.070;14.492;2024-03-02T00:35:50;10.10;;;5.93;;
74152;SDS011;62505;46.070;14.492;2024-03-02T00:38:18;9.20;;;5.63;;
74152;SDS011;62505;46.070;14.492;2024-03-02T00:40:46;9.05;;;6.45;;
74152;SDS011;62505;46.070;14.492;2024-03-02T00:43:19;8.02;;;6.18;;
74152;SDS011;62505;46.070;14.492;2024-03-02T00:46:06;7.55;;;5.82;;
74152;SDS011;62505;46.070;14.492;2024-03-02T00:48:33;9.77;;;5.97;;
74152;SDS011;62505;46.070;14.492;2024-03-02T00:51:01;9.38;;;6.15;;
74152;SDS011;62505;46.070;14.492;2024-03-02T00:53:31;9.35;;;5.93;;
74152;SDS011;62505;46.070;14.492;2024-03-02T00:55:58;8.93;;;6.30;;
74152;SDS011;62505;46.070;14.492;2024-03-02T00:58:26;6.90;;;5.72;;
74152;SDS011;62505;46.070;14.492;2024-03-02T01:00:53;8.98;;;6.32;;
74152;SDS011;62505;46.070;14.492;2024-03-02T01:03:21;8.23;;;5.85;;
74152;SDS011;62505;46.070;14.492;2024-03-02T01:05:48;7.35;;;5.43;;
74152;SDS011;62505;46.070;14.492;2024-03-02T01:08:15;7.35;;;5.72;;
74152;SDS011;62505;46.070;14.492;2024-03-02T01:10:43;9.45;;;6.07;;
74152;SDS011;62505;46.070;14.492;2024-03-02T01:13:10;7.20;;;5.85;;
74152;SDS011;62505;46.070;14.492;2024-03-02T01:15:37;10.20;;;5.75;;
74152;SDS011;62505;46.070;14.492;2024-03-02T01:18:04;7.10;;;5.60;;
74152;SDS011;62505;46.070;14.492;2024-03-02T01:20:31;8.15;;;6.13;;
74152;SDS011;62505;46.070;14.492;2024-03-02T01:22:58;8.70;;;5.95;;
74152;SDS011;62505;46.070;14.492;2024-03-02T01:25:25;7.45;;;5.93;;
74152;SDS011;62505;46.070;14.492;2024-03-02T01:27:53;7.97;;;6.20;;
74152;SDS011;62505;46.070;14.492;2024-03-02T01:30:20;7.20;;;5.40;;
74152;SDS011;62505;46.070;14.492;2024-03-02T01:32:47;6.70;;;5.78;;
74152;SDS011;62505;46.070;14.492;2024-03-02T01:35:14;9.38;;;5.63;;
74152;SDS011;62505;46.070;14.492;2024-03-02T01:37:41;7.25;;;5.78;;
74152;SDS011;62505;46.070;14.492;2024-03-02T01:40:09;7.38;;;5.65;;
74152;SDS011;62505;46.070;14.492;2024-03-02T01:42:37;8.02;;;5.40;;
74152;SDS011;62505;46.070;14.492;2024-03-02T01:45:06;9.43;;;5.78;;
74152;SDS011;62505;46.070;14.492;2024-03-02T01:47:34;7.15;;;5.45;;
74152;SDS011;62505;46.070;14.492;2024-03-02T01:50:01;7.53;;;5.78;;
74152;SDS011;62505;46.070;14.492;2024-03-02T01:52:29;7.35;;;5.72;;
74152;SDS011;62505;46.070;14.492;2024-03-02T01:54:56;8.05;;;5.70;;
74152;SDS011;62505;46.070;14.492;2024-03-02T01:57:22;6.97;;;5.40;;
74152;SDS011;62505;46.070;14.492;2024-03-02T01:59:50;7.55;;;5.78;;
74152;SDS011;62505;46.070;14.492;2024-03-02T02:02:19;8.85;;;6.07;;
74152;SDS011;62505;46.070;14.492;2024-03-02T02:04:46;7.90;;;5.80;;
74152;SDS011;62505;46.070;14.492;2024-03-02T02:07:13;10.18;;;5.60;;
74152;SDS011;62505;46.070;14.492;2024-03-02T02:09:41;8.82;;;5.53;;
74152;SDS011;62505;46.070;14.492;2024-03-02T02:12:08;8.70;;;6.35;;
74152;SDS011;62505;46.070;14.492;2024-03-02T02:14:36;8.15;;;5.88;;
74152;SDS011;62505;46.070;14.492;2024-03-02T02:17:05;8.48;;;5.82;;
74152;SDS011;62505;46.070;14.492;2024-03-02T02:19:33;7.45;;;5.65;;
74152;SDS011;62505;46.070;14.492;2024-03-02T02:22:01;6.43;;;5.53;;
74152;SDS011;62505;46.070;14.492;2024-03-02T02:24:28;7.07;;;5.70;;
74152;SDS011;62505;46.070;14.492;2024-03-02T02:26:55;8.30;;;5.85;;
74152;SDS011;62505;46.070;14.492;2024-03-02T02:29:22;7.20;;;5.20;;
74152;SDS011;62505;46.070;14.492;2024-03-02T02:31:49;7.68;;;5.88;;
74152;SDS011;62505;46.070;14.492;2024-03-02T02:34:16;10.52;;;5.90;;
74152;SDS011;62505;46.070;14.492;2024-03-02T02:36:43;6.65;;;5.35;;
74152;SDS011;62505;46.070;14.492;2024-03-02T02:39:13;7.30;;;6.00;;
74152;SDS011;62505;46.070;14.492;2024-03-02T02:41:42;6.43;;;5.60;;
74152;SDS011;62505;46.070;14.492;2024-03-02T02:44:09;8.15;;;5.85;;
74152;SDS011;62505;46.070;14.492;2024-03-02T02:46:37;8.38;;;5.85;;
74152;SDS011;62505;46.070;14.492;2024-03-02T02:49:04;7.10;;;5.63;;
74152;SDS011;62505;46.070;14.492;2024-03-02T02:51:32;8.02;;;6.03;;
74152;SDS011;62505;46.070;14.492;2024-03-02T02:53:59;7.22;;;5.72;;
74152;SDS011;62505;46.070;14.492;2024-03-02T02:56:27;7.63;;;5.35;;
74152;SDS011;62505;46.070;14.492;2024-03-02T02:58:54;7.07;;;5.65;;
74152;SDS011;62505;46.070;14.492;2024-03-02T03:01:21;8.90;;;5.80;;
74152;SDS011;62505;46.070;14.492;2024-03-02T03:03:48;6.93;;;5.55;;
74152;SDS011;62505;46.070;14.492;2024-03-02T03:06:15;8.40;;;5.88;;
74152;SDS011;62505;46.070;14.492;2024-03-02T03:08:42;7.70;;;5.82;;
74152;SDS011;62505;46.070;14.492;2024-03-02T03:11:09;8.00;;;5.95;;
74152;SDS011;62505;46.070;14.492;2024-03-02T03:13:37;6.93;;;5.57;;
74152;SDS011;62505;46.070;14.492;2024-03-02T03:16:04;10.93;;;5.70;;
74152;SDS011;62505;46.070;14.492;2024-03-02T03:18:32;10.05;;;6.00;;
74152;SDS011;62505;46.070;14.492;2024-03-02T03:20:58;10.88;;;5.63;;
74152;SDS011;62505;46.070;14.492;2024-03-02T03:23:25;8.73;;;5.47;;
74152;SDS011;62505;46.070;14.492;2024-03-02T03:25:52;6.60;;;5.28;;
74152;SDS011;62505;46.070;14.492;2024-03-02T03:28:19;9.90;;;6.28;;
74152;SDS011;62505;46.070;14.492;2024-03-02T03:30:48;7.47;;;5.68;;
74152;SDS011;62505;46.070;14.492;2024-03-02T03:33:15;8.23;;;5.88;;
74152;SDS011;62505;46.070;14.492;2024-03-02T03:35:42;7.43;;;5.53;;
74152;SDS011;62505;46.070;14.492;2024-03-02T03:38:08;9.27;;;5.38;;
74152;SDS011;62505;46.070;14.492;2024-03-02T03:40:35;8.32;;;5.80;;
74152;SDS011;62505;46.070;14.492;2024-03-02T03:43:02;8.05;;;5.50;;
74152;SDS011;62505;46.070;14.492;2024-03-02T03:45:30;6.55;;;5.45;;
74152;SDS011;62505;46.070;14.492;2024-03-02T03:47:57;7.68;;;6.05;;
74152;SDS011;62505;46.070;14.492;2024-03-02T03:50:24;7.15;;;5.40;;
74152;SDS011;62505;46.070;14.492;2024-03-02T03:52:51;7.15;;;5.85;;
74152;SDS011;62505;46.070;14.492;2024-03-02T03:55:18;6.90;;;5.90;;
74152;SDS011;62505;46.070;14.492;2024-03-02T03:57:45;7.43;;;5.88;;
74152;SDS011;62505;46.070;14.492;2024-03-02T04:00:12;7.40;;;5.70;;
74152;SDS011;62505;46.070;14.492;2024-03-02T04:02:40;7.60;;;5.47;;
74152;SDS011;62505;46.070;14.492;2024-03-02T04:05:09;7.13;;;5.65;;
74152;SDS011;62505;46.070;14.492;2024-03-02T04:07:36;7.25;;;5.60;;
74152;SDS011;62505;46.070;14.492;2024-03-02T04:10:08;8.68;;;6.13;;
74152;SDS011;62505;46.070;14.492;2024-03-02T04:12:35;8.07;;;5.75;;
74152;SDS011;62505;46.070;14.492;2024-03-02T04:15:03;7.78;;;5.95;;
74152;SDS011;62505;46.070;14.492;2024-03-02T04:17:31;8.35;;;6.15;;
74152;SDS011;62505;46.070;14.492;2024-03-02T04:20:01;7.55;;;5.65;;
74152;SDS011;62505;46.070;14.492;2024-03-02T04:22:32;7.43;;;5.43;;
74152;SDS011;62505;46.070;14.492;2024-03-02T04:25:00;7.70;;;5.63;;
74152;SDS011;62505;46.070;14.492;2024-03-02T04:27:29;7.32;;;5.78;;
74152;SDS011;62505;46.070;14.492;2024-03-02T04:29:57;7.72;;;5.85;;
74152;SDS011;62505;46.070;14.492;2024-03-02T04:32:25;7.85;;;5.90;;
74152;SDS011;62505;46.070;14.492;2024-03-02T04:34:52;6.40;;;5.70;;
74152;SDS011;62505;46.070;14.492;2024-03-02T04:37:19;7.18;;;5.63;;
74152;SDS011;62505;46.070;14.492;2024-03-02T04:39:48;7.47;;;5.55;;
74152;SDS011;62505;46.070;14.492;2024-03-02T04:42:15;7.03;;;5.50;;
74152;SDS011;62505;46.070;14.492;2024-03-02T04:44:42;6.00;;;5.30;;
74152;SDS011;62505;46.070;14.492;2024-03-02T04:47:09;9.07;;;5.70;;
74152;SDS011;62505;46.070;14.492;2024-03-02T04:49:35;6.75;;;5.88;;
74152;SDS011;62505;46.070;14.492;2024-03-02T04:52:03;8.55;;;5.45;;
74152;SDS011;62505;46.070;14.492;2024-03-02T04:54:30;8.00;;;5.80;;
74152;SDS011;62505;46.070;14.492;2024-03-02T04:56:58;7.05;;;5.68;;
74152;SDS011;62505;46.070;14.492;2024-03-02T04:59:25;7.72;;;5.95;;
74152;SDS011;62505;46.070;14.492;2024-03-02T05:01:52;7.90;;;5.82;;
74152;SDS011;62505;46.070;14.492;2024-03-02T05:04:19;7.03;;;5.30;;
74152;SDS011;62505;46.070;14.492;2024-03-02T05:06:46;8.23;;;5.60;;
74152;SDS011;62505;46.070;14.492;2024-03-02T05:09:17;8.15;;;5.90;;
74152;SDS011;62505;46.070;14.492;2024-03-02T05:11:44;8.45;;;5.47;;
74152;SDS011;62505;46.070;14.492;2024-03-02T05:14:26;6.50;;;5.07;;
74152;SDS011;62505;46.070;14.492;2024-03-02T05:16:54;6.38;;;5.20;;
74152;SDS011;62505;46.070;14.492;2024-03-02T05:19:20;6.88;;;5.45;;
74152;SDS011;62505;46.070;14.492;2024-03-02T05:21:47;6.60;;;5.47;;
74152;SDS011;62505;46.070;14.492;2024-03-02T05:24:15;6.82;;;5.60;;
74152;SDS011;62505;46.070;14.492;2024-03-02T05:26:42;8.10;;;5.50;;
74152;SDS011;62505;46.070;14.492;2024-03-02T05:29:09;7.05;;;5.60;;
74152;SDS011;62505;46.070;14.492;2024-03-02T05:31:37;7.25;;;5.40;;
74152;SDS011;62505;46.070;14.492;2024-03-02T05:34:04;8.00;;;5.80;;
74152;SDS011;62505;46.070;14.492;2024-03-02T05:36:31;7.25;;;5.50;;
74152;SDS011;62505;46.070;14.492;2024-03-02T05:38:58;7.00;;;5.00;;
74152;SDS011;62505;46.070;14.492;2024-03-02T05:41:25;7.15;;;5.32;;
74152;SDS011;62505;46.070;14.492;2024-03-02T05:43:52;7.30;;;5.80;;
74152;SDS011;62505;46.070;14.492;2024-03-02T05:46:19;6.00;;;5.25;;
74152;SDS011;62505;46.070;14.492;2024-03-02T05:48:48;6.35;;;5.20;;
74152;SDS011;62505;46.070;14.492;2024-03-02T05:51:15;6.88;;;4.97;;
74152;SDS011;62505;46.070;14.492;2024-03-02T05:53:42;7.95;;;5.50;;
74152;SDS011;62505;46.070;14.492;2024-03-02T05:56:09;10.18;;;6.15;;
74152;SDS011;62505;46.070;14.492;2024-03-02T05:58:37;6.47;;;5.18;;
74152;SDS011;62505;46.070;14.492;2024-03-02T06:01:14;7.60;;;5.78;;
74152;SDS011;62505;46.070;14.492;2024-03-02T06:03:43;7.13;;;5.57;;
74152;SDS011;62505;46.070;14.492;2024-03-02T06:06:11;7.78;;;5.32;;
74152;SDS011;62505;46.070;14.492;2024-03-02T06:08:38;6.82;;;5.30;;
74152;SDS011;62505;46.070;14.492;2024-03-02T06:11:05;7.00;;;5.10;;
74152;SDS011;62505;46.070;14.492;2024-03-02T06:13:32;10.13;;;5.68;;
74152;SDS011;62505;46.070;14.492;2024-03-02T06:15:59;6.80;;;5.43;;
74152;SDS011;62505;46.070;14.492;2024-03-02T06:18:26;6.05;;;5.28;;
74152;SDS011;62505;46.070;14.492;2024-03-02T06:20:53;8.55;;;5.63;;
74152;SDS011;62505;46.070;14.492;2024-03-02T06:23:21;7.55;;;5.22;;
74152;SDS011;62505;46.070;14.492;2024-03-02T06:25:48;9.35;;;5.50;;
74152;SDS011;62505;46.070;14.492;2024-03-02T06:28:15;6.72;;;5.53;;
74152;SDS011;62505;46.070;14.492;2024-03-02T06:30:42;8.07;;;5.65;;
74152;SDS011;62505;46.070;14.492;2024-03-02T06:33:10;10.00;;;5.47;;
74152;SDS011;62505;46.070;14.492;2024-03-02T06:35:36;9.38;;;5.55;;
74152;SDS011;62505;46.070;14.492;2024-03-02T06:38:04;7.07;;;5.53;;
74152;SDS011;62505;46.070;14.492;2024-03-02T06:40:32;7.47;;;6.00;;
74152;SDS011;62505;46.070;14.492;2024-03-02T06:43:00;6.78;;;5.25;;
74152;SDS011;62505;46.070;14.492;2024-03-02T06:45:27;7.50;;;5.65;;
74152;SDS011;62505;46.070;14.492;2024-03-02T06:47:55;8.45;;;5.85;;
74152;SDS011;62505;46.070;14.492;2024-03-02T06:50:23;9.32;;;5.55;;
74152;SDS011;62505;46.070;14.492;2024-03-02T06:52:50;9.15;;;5.70;;
74152;SDS011;62505;46.070;14.492;2024-03-02T06:55:18;12.68;;;5.88;;
74152;SDS011;62505;46.070;14.492;2024-03-02T06:57:46;9.88;;;5.70;;
74152;SDS011;62505;46.070;14.492;2024-03-02T07:00:13;9.82;;;5.25;;
74152;SDS011;62505;46.070;14.492;2024-03-02T07:02:42;9.63;;;6.13;;
74152;SDS011;62505;46.070;14.492;2024-03-02T07:05:10;9.48;;;5.47;;
74152;SDS011;62505;46.070;14.492;2024-03-02T07:07:37;8.95;;;5.95;;
74152;SDS011;62505;46.070;14.492;2024-03-02T07:10:04;7.32;;;6.30;;
74152;SDS011;62505;46.070;14.492;2024-03-02T07:12:32;8.80;;;5.70;;
74152;SDS011;62505;46.070;14.492;2024-03-02T07:15:01;9.52;;;5.85;;
74152;SDS011;62505;46.070;14.492;2024-03-02T07:17:50;8.90;;;6.68;;
74152;SDS011;62505;46.070;14.492;2024-03-02T07:20:17;8.98;;;5.97;;
74152;SDS011;62505;46.070;14.492;2024-03-02T07:22:44;11.70;;;6.15;;
74152;SDS011;62505;46.070;14.492;2024-03-02T07:25:11;9.63;;;6.30;;
74152;SDS011;62505;46.070;14.492;2024-03-02T07:27:38;8.85;;;6.38;;
74152;SDS011;62505;46.070;14.492;2024-03-02T07:30:07;9.68;;;5.85;;
74152;SDS011;62505;46.070;14.492;2024-03-02T07:32:36;10.98;;;6.03;;
74152;SDS011;62505;46.070;14.492;2024-03-02T07:35:04;10.25;;;6.50;;
74152;SDS011;62505;46.070;14.492;2024-03-02T07:37:32;8.25;;;5.72;;
74152;SDS011;62505;46.070;14.492;2024-03-02T07:39:59;9.77;;;6.70;;
74152;SDS011;62505;46.070;14.492;2024-03-02T07:42:27;9.88;;;5.50;;
74152;SDS011;62505;46.070;14.492;2024-03-02T07:44:55;9.55;;;6.10;;
74152;SDS011;62505;46.070;14.492;2024-03-02T07:47:23;8.20;;;5.72;;
74152;SDS011;62505;46.070;14.492;2024-03-02T07:49:50;10.38;;;6.38;;
74152;SDS011;62505;46.070;14.492;2024-03-02T07:52:17;9.18;;;6.18;;
74152;SDS011;62505;46.070;14.492;2024-03-02T07:54:44;9.07;;;6.00;;
74152;SDS011;62505;46.070;14.492;2024-03-02T07:57:11;7.18;;;5.85;;
74152;SDS011;62505;46.070;14.492;2024-03-02T07:59:38;8.55;;;5.93;;
74152;SDS011;62505;46.070;14.492;2024-03-02T08:02:05;8.43;;;5.57;;
74152;SDS011;62505;46.070;14.492;2024-03-02T08:04:34;10.88;;;5.72;;
74152;SDS011;62505;46.070;14.492;2024-03-02T08:07:02;11.20;;;6.07;;
74152;SDS011;62505;46.070;14.492;2024-03-02T08:09:29;9.00;;;5.82;;
74152;SDS011;62505;46.070;14.492;2024-03-02T08:11:56;13.40;;;7.40;;
74152;SDS011;62505;46.070;14.492;2024-03-02T08:14:23;9.05;;;6.25;;
74152;SDS011;62505;46.070;14.492;2024-03-02T08:16:50;8.57;;;6.10;;
74152;SDS011;62505;46.070;14.492;2024-03-02T08:19:17;10.57;;;6.10;;
74152;SDS011;62505;46.070;14.492;2024-03-02T08:21:45;11.98;;;7.13;;
74152;SDS011;62505;46.070;14.492;2024-03-02T08:24:12;12.05;;;6.70;;
74152;SDS011;62505;46.070;14.492;2024-03-02T08:26:40;9.10;;;6.63;;
74152;SDS011;62505;46.070;14.492;2024-03-02T08:29:07;9.15;;;6.40;;
74152;SDS011;62505;46.070;14.492;2024-03-02T08:31:34;11.02;;;6.75;;
74152;SDS011;62505;46.070;14.492;2024-03-02T08:34:01;11.85;;;6.10;;
74152;SDS011;62505;46.070;14.492;2024-03-02T08:36:28;11.77;;;6.68;;
74152;SDS011;62505;46.070;14.492;2024-03-02T08:38:56;9.60;;;6.38;;
74152;SDS011;62505;46.070;14.492;2024-03-02T08:41:23;9.27;;;6.45;;
74152;SDS011;62505;46.070;14.492;2024-03-02T08:43:50;8.73;;;6.40;;
74152;SDS011;62505;46.070;14.492;2024-03-02T08:46:17;8.85;;;6.80;;
74152;SDS011;62505;46.070;14.492;2024-03-02T08:48:44;10.98;;;6.90;;
74152;SDS011;62505;46.070;14.492;2024-03-02T08:51:11;10.88;;;6.35;;
74152;SDS011;62505;46.070;14.492;2024-03-02T08:53:38;8.48;;;6.30;;
74152;SDS011;62505;46.070;14.492;2024-03-02T08:56:07;8.68;;;6.20;;
74152;SDS011;62505;46.070;14.492;2024-03-02T08:58:34;11.32;;;7.28;;
74152;SDS011;62505;46.070;14.492;2024-03-02T09:01:01;10.05;;;6.45;;
74152;SDS011;62505;46.070;14.492;2024-03-02T09:03:28;9.88;;;6.53;;
74152;SDS011;62505;46.070;14.492;2024-03-02T09:05:58;11.05;;;6.72;;
74152;SDS011;62505;46.070;14.492;2024-03-02T09:08:25;8.70;;;6.75;;
74152;SDS011;62505;46.070;14.492;2024-03-02T09:10:52;13.43;;;7.10;;
74152;SDS011;62505;46.070;14.492;2024-03-02T09:13:21;9.70;;;6.85;;
74152;SDS011;62505;46.070;14.492;2024-03-02T09:15:48;13.30;;;6.72;;
74152;SDS011;62505;46.070;14.492;2024-03-02T09:18:15;8.73;;;6.30;;
74152;SDS011;62505;46.070;14.492;2024-03-02T09:20:42;9.80;;;6.55;;
74152;SDS011;62505;46.070;14.492;2024-03-02T09:23:09;11.73;;;6.80;;
74152;SDS011;62505;46.070;14.492;2024-03-02T09:25:36;9.57;;;6.22;;
74152;SDS011;62505;46.070;14.492;2024-03-02T09:28:03;9.65;;;7.03;;
74152;SDS011;62505;46.070;14.492;2024-03-02T09:30:31;11.82;;;6.40;;
74152;SDS011;62505;46.070;14.492;2024-03-02T09:32:58;18.75;;;7.88;;
74152;SDS011;62505;46.070;14.492;2024-03-02T09:35:25;22.30;;;8.15;;
74152;SDS011;62505;46.070;14.492;2024-03-02T09:37:52;26.70;;;8.10;;
74152;SDS011;62505;46.070;14.492;2024-03-02T09:40:21;22.15;;;7.75;;
74152;SDS011;62505;46.070;14.492;2024-03-02T09:42:48;27.02;;;7.18;;
74152;SDS011;62505;46.070;14.492;2024-03-02T09:45:18;19.67;;;8.75;;
74152;SDS011;62505;46.070;14.492;2024-03-02T09:47:50;24.70;;;8.13;;
74152;SDS011;62505;46.070;14.492;2024-03-02T09:50:17;16.38;;;7.30;;
74152;SDS011;62505;46.070;14.492;2024-03-02T09:52:44;17.33;;;7.75;;
74152;SDS011;62505;46.070;14.492;2024-03-02T09:55:15;25.08;;;7.90;;
74152;SDS011;62505;46.070;14.492;2024-03-02T09:57:43;17.63;;;8.00;;
74152;SDS011;62505;46.070;14.492;2024-03-02T10:00:11;15.82;;;7.60;;
74152;SDS011;62505;46.070;14.492;2024-03-02T10:02:39;15.80;;;7.65;;
74152;SDS011;62505;46.070;14.492;2024-03-02T10:05:09;16.33;;;7.57;;
74152;SDS011;62505;46.070;14.492;2024-03-02T10:07:37;12.63;;;7.07;;
74152;SDS011;62505;46.070;14.492;2024-03-02T10:10:12;15.38;;;7.03;;
74152;SDS011;62505;46.070;14.492;2024-03-02T10:12:40;12.63;;;6.63;;
74152;SDS011;62505;46.070;14.492;2024-03-02T10:15:07;13.05;;;6.35;;
74152;SDS011;62505;46.070;14.492;2024-03-02T10:17:34;12.85;;;6.60;;
74152;SDS011;62505;46.070;14.492;2024-03-02T10:22:54;11.23;;;6.60;;
74152;SDS011;62505;46.070;14.492;2024-03-02T10:25:30;14.98;;;6.80;;
74152;SDS011;62505;46.070;14.492;2024-03-02T10:27:58;16.88;;;6.75;;
74152;SDS011;62505;46.070;14.492;2024-03-02T10:30:25;16.02;;;8.00;;
74152;SDS011;62505;46.070;14.492;2024-03-02T10:32:54;13.63;;;6.82;;
74152;SDS011;62505;46.070;14.492;2024-03-02T10:35:22;13.00;;;6.57;;
74152;SDS011;62505;46.070;14.492;2024-03-02T10:37:52;10.70;;;6.57;;
74152;SDS011;62505;46.070;14.492;2024-03-02T10:40:21;13.85;;;7.75;;
74152;SDS011;62505;46.070;14.492;2024-03-02T10:42:49;18.10;;;10.50;;
74152;SDS011;62505;46.070;14.492;2024-03-02T10:45:17;19.52;;;10.98;;
74152;SDS011;62505;46.070;14.492;2024-03-02T10:50:11;15.05;;;9.02;;
74152;SDS011;62505;46.070;14.492;2024-03-02T10:52:38;14.27;;;9.00;;
74152;SDS011;62505;46.070;14.492;2024-03-02T10:55:08;17.45;;;8.05;;
74152;SDS011;62505;46.070;14.492;2024-03-02T10:57:40;18.02;;;9.10;;
74152;SDS011;62505;46.070;14.492;2024-03-02T11:00:11;13.48;;;8.07;;
74152;SDS011;62505;46.070;14.492;2024-03-02T11:02:42;15.00;;;7.97;;
74152;SDS011;62505;46.070;14.492;2024-03-02T11:05:13;15.85;;;7.75;;
74152;SDS011;62505;46.070;14.492;2024-03-02T11:07:53;11.68;;;7.60;;
74152;SDS011;62505;46.070;14.492;2024-03-02T11:13:02;14.43;;;7.97;;
74152;SDS011;62505;46.070;14.492;2024-03-02T11:15:32;16.77;;;8.20;;
74152;SDS011;62505;46.070;14.492;2024-03-02T11:18:03;14.30;;;7.97;;
74152;SDS011;62505;46.070;14.492;2024-03-02T11:20:33;14.75;;;8.77;;
74152;SDS011;62505;46.070;14.492;2024-03-02T11:23:04;14.75;;;8.10;;
74152;SDS011;62505;46.070;14.492;2024-03-02T11:25:33;15.38;;;8.55;;
74152;SDS011;62505;46.070;14.492;2024-03-02T11:28:04;13.85;;;7.97;;
74152;SDS011;62505;46.070;14.492;2024-03-02T11:30:50;18.55;;;8.13;;
74152;SDS011;62505;46.070;14.492;2024-03-02T11:33:24;13.48;;;7.97;;
74152;SDS011;62505;46.070;14.492;2024-03-02T11:35:54;15.13;;;7.93;;
74152;SDS011;62505;46.070;14.492;2024-03-02T11:38:23;11.77;;;8.02;;
74152;SDS011;62505;46.070;14.492;2024-03-02T11:40:55;12.90;;;8.10;;
74152;SDS011;62505;46.070;14.492;2024-03-02T11:43:22;14.40;;;8.50;;
74152;SDS011;62505;46.070;14.492;2024-03-02T11:45:56;13.68;;;8.02;;
74152;SDS011;62505;46.070;14.492;2024-03-02T11:48:24;12.65;;;8.02;;
74152;SDS011;62505;46.070;14.492;2024-03-02T11:50:52;12.30;;;6.90;;
74152;SDS011;62505;46.070;14.492;2024-03-02T11:53:19;12.68;;;7.40;;
74152;SDS011;62505;46.070;14.492;2024-03-02T11:55:47;12.70;;;7.90;;
74152;SDS011;62505;46.070;14.492;2024-03-02T11:58:16;13.75;;;7.93;;
74152;SDS011;62505;46.070;14.492;2024-03-02T12:00:45;11.10;;;6.85;;
74152;SDS011;62505;46.070;14.492;2024-03-02T12:03:13;12.90;;;6.97;;
74152;SDS011;62505;46.070;14.492;2024-03-02T12:05:40;11.95;;;6.97;;
74152;SDS011;62505;46.070;14.492;2024-03-02T12:08:08;11.45;;;7.07;;
74152;SDS011;62505;46.070;14.492;2024-03-02T12:10:38;9.55;;;7.32;;
74152;SDS011;62505;46.070;14.492;2024-03-02T12:13:05;8.98;;;5.97;;
74152;SDS011;62505;46.070;14.492;2024-03-02T12:15:37;12.77;;;7.10;;
74152;SDS011;62505;46.070;14.492;2024-03-02T12:18:05;11.80;;;6.45;;
74152;SDS011;62505;46.070;14.492;2024-03-02T12:20:33;10.60;;;6.47;;
74152;SDS011;62505;46.070;14.492;2024-03-02T12:23:01;10.85;;;6.32;;
74152;SDS011;62505;46.070;14.492;2024-03-02T12:25:31;8.68;;;5.90;;
74152;SDS011;62505;46.070;14.492;2024-03-02T12:27:59;8.65;;;6.03;;
74152;SDS011;62505;46.070;14.492;2024-03-02T12:30:29;8.63;;;6.55;;
74152;SDS011;62505;46.070;14.492;2024-03-02T12:32:58;11.68;;;6.78;;
74152;SDS011;62505;46.070;14.492;2024-03-02T12:35:25;8.70;;;6.22;;
74152;SDS011;62505;46.070;14.492;2024-03-02T12:37:53;10.95;;;6.72;;
74152;SDS011;62505;46.070;14.492;2024-03-02T12:40:20;9.35;;;6.18;;
74152;SDS011;62505;46.070;14.492;2024-03-02T12:42:48;10.00;;;6.63;;
74152;SDS011;62505;46.070;14.492;2024-03-02T12:45:16;9.40;;;6.53;;
74152;SDS011;62505;46.070;14.492;2024-03-02T12:47:48;9.13;;;6.07;;
74152;SDS011;62505;46.070;14.492;2024-03-02T12:50:18;8.75;;;5.88;;
74152;SDS011;62505;46.070;14.492;2024-03-02T12:52:50;8.27;;;5.90;;
74152;SDS011;62505;46.070;14.492;2024-03-02T12:55:19;8.82;;;5.85;;
74152;SDS011;62505;46.070;14.492;2024-03-02T12:57:50;9.05;;;6.00;;
74152;SDS011;62505;46.070;14.492;2024-03-02T13:00:18;8.65;;;6.28;;
74152;SDS011;62505;46.070;14.492;2024-03-02T13:02:46;11.40;;;5.82;;
74152;SDS011;62505;46.070;14.492;2024-03-02T13:05:15;8.82;;;6.20;;
74152;SDS011;62505;46.070;14.492;2024-03-02T13:07:46;7.38;;;5.25;;
74152;SDS011;62505;46.070;14.492;2024-03-02T13:10:14;8.10;;;5.70;;
74152;SDS011;62505;46.070;14.492;2024-03-02T13:12:41;9.07;;;6.13;;
74152;SDS011;62505;46.070;14.492;2024-03-02T13:15:08;9.65;;;6.07;;
74152;SDS011;62505;46.070;14.492;2024-03-02T13:17:35;9.35;;;6.13;;
74152;SDS011;62505;46.070;14.492;2024-03-02T13:20:03;8.77;;;6.13;;
74152;SDS011;62505;46.070;14.492;2024-03-02T13:22:34;7.70;;;5.40;;
74152;SDS011;62505;46.070;14.492;2024-03-02T13:25:01;8.63;;;5.90;;
74152;SDS011;62505;46.070;14.492;2024-03-02T13:27:29;7.38;;;5.88;;
74152;SDS011;62505;46.070;14.492;2024-03-02T13:29:57;8.60;;;6.20;;
74152;SDS011;62505;46.070;14.492;2024-03-02T13:32:24;10.35;;;6.10;;
74152;SDS011;62505;46.070;14.492;2024-03-02T13:34:51;8.32;;;5.88;;
74152;SDS011;62505;46.070;14.492;2024-03-02T13:37:19;9.10;;;6.10;;
74152;SDS011;62505;46.070;14.492;2024-03-02T13:39:48;7.82;;;5.60;;
74152;SDS011;62505;46.070;14.492;2024-03-02T13:42:15;8.07;;;5.35;;
74152;SDS011;62505;46.070;14.492;2024-03-02T13:44:43;6.85;;;5.18;;
74152;SDS011;62505;46.070;14.492;2024-03-02T13:47:13;9.65;;;5.82;;
74152;SDS011;62505;46.070;14.492;2024-03-02T13:49:40;9.82;;;5.53;;
74152;SDS011;62505;46.070;14.492;2024-03-02T13:52:09;7.68;;;5.63;;
74152;SDS011;62505;46.070;14.492;2024-03-02T13:54:38;10.48;;;5.45;;
74152;SDS011;62505;46.070;14.492;2024-03-02T13:57:09;7.95;;;5.35;;
74152;SDS011;62505;46.070;14.492;2024-03-02T13:59:37;6.70;;;5.18;;
74152;SDS011;62505;46.070;14.492;2024-03-02T14:02:04;7.80;;;5.75;;
74152;SDS011;62505;46.070;14.492;2024-03-02T14:04:32;6.80;;;5.07;;
74152;SDS011;62505;46.070;14.492;2024-03-02T14:06:59;6.78;;;5.13;;
74152;SDS011;62505;46.070;14.492;2024-03-02T14:09:27;9.38;;;6.10;;
74152;SDS011;62505;46.070;14.492;2024-03-02T14:11:54;7.03;;;5.25;;
74152;SDS011;62505;46.070;14.492;2024-03-02T14:14:23;7.47;;;5.18;;
74152;SDS011;62505;46.070;14.492;2024-03-02T14:16:50;7.78;;;5.15;;
74152;SDS011;62505;46.070;14.492;2024-03-02T14:19:18;8.80;;;5.60;;
74152;SDS011;62505;46.070;14.492;2024-03-02T14:21:46;8.90;;;5.35;;
74152;SDS011;62505;46.070;14.492;2024-03-02T14:24:13;6.13;;;4.93;;
74152;SDS011;62505;46.070;14.492;2024-03-02T14:26:40;8.63;;;4.63;;
74152;SDS011;62505;46.070;14.492;2024-03-02T14:29:08;9.90;;;5.03;;
74152;SDS011;62505;46.070;14.492;2024-03-02T14:31:37;7.22;;;4.90;;
74152;SDS011;62505;46.070;14.492;2024-03-02T14:34:04;7.55;;;5.25;;
74152;SDS011;62505;46.070;14.492;2024-03-02T14:36:31;7.65;;;4.88;;
74152;SDS011;62505;46.070;14.492;2024-03-02T14:38:59;7.30;;;4.90;;
74152;SDS011;62505;46.070;14.492;2024-03-02T14:41:26;9.10;;;5.80;;
74152;SDS011;62505;46.070;14.492;2024-03-02T14:43:53;6.32;;;4.97;;